Time;durP1;ratioP1;P1;durP2;ratioP2;P2;SDS_P1;SDS_P2;PMS_P1;PMS_P2;Temp;Humidity;BMP_temperature;BMP_pressure;BME280_temperature;BME280_humidity;BME280_pressure;Samples;Min_cycle;Max_cycle;Signal;HPM_P1;HPM_P2
2023/09/24 00:01:49;;;;;;;9.27;2.80;;;20.90;70.50;;;;;;5071767;28;20039;-73
2023/09/24 00:04:15;;;;;;;7.05;2.60;;;20.80;70.40;;;;;;5071703;28;20064;-72
2023/09/24 00:06:41;;;;;;;7.45;2.60;;;20.80;70.60;;;;;;5071524;28;20439;-73
2023/09/24 00:09:07;;;;;;;7.90;2.50;;;20.70;70.60;;;;;;5061320;22;20427;-73
2023/09/24 00:11:32;;;;;;;7.18;2.60;;;20.60;70.90;;;;;;5051882;28;20040;-73
2023/09/24 00:13:58;;;;;;;9.98;2.30;;;20.60;71.30;;;;;;5051594;28;20021;-73
2023/09/24 00:16:24;;;;;;;4.88;2.13;;;20.60;70.80;;;;;;5051350;28;20442;-73
2023/09/24 00:18:49;;;;;;;7.15;1.98;;;20.50;71.50;;;;;;5033404;28;20052;-72
2023/09/24 00:21:16;;;;;;;6.85;2.30;;;20.50;71.20;;;;;;5051510;28;20146;-72
2023/09/24 00:23:43;;;;;;;9.52;2.67;;;20.50;71.10;;;;;;5051514;28;20029;-73
2023/09/24 00:26:08;;;;;;;8.48;2.50;;;20.50;70.90;;;;;;5051063;28;20485;-73
2023/09/24 00:28:34;;;;;;;6.72;2.25;;;20.60;70.90;;;;;;5051489;28;20029;-75
2023/09/24 00:31:00;;;;;;;7.25;2.28;;;20.60;70.90;;;;;;5033406;28;20048;-72
2023/09/24 00:33:26;;;;;;;6.20;2.17;;;20.60;70.90;;;;;;5051397;28;20029;-72
2023/09/24 00:35:52;;;;;;;6.53;2.20;;;20.60;71.10;;;;;;5051306;28;20566;-71
2023/09/24 00:38:18;;;;;;;7.22;2.38;;;20.50;71.10;;;;;;5051227;28;20037;-72
2023/09/24 00:40:44;;;;;;;9.40;2.33;;;20.60;71.10;;;;;;5054395;28;20096;-73
2023/09/24 00:43:34;;;;;;;5.85;2.13;;;20.50;70.80;;;;;;5054878;28;20041;-73
2023/09/24 00:46:05;;;;;;;6.88;2.47;;;20.60;70.90;;;;;;5044669;28;20656;-72
2023/09/24 00:48:32;;;;;;;7.38;2.22;;;20.50;70.90;;;;;;5054659;28;20407;-72
2023/09/24 00:51:14;;;;;;;5.65;2.05;;;20.50;71.10;;;;;;5054869;28;20055;-72
2023/09/24 00:53:40;;;;;;;5.95;2.40;;;20.50;71.60;;;;;;5055030;28;20061;-71
2023/09/24 00:56:06;;;;;;;6.47;2.00;;;20.50;70.90;;;;;;5054720;28;20370;-71
2023/09/24 00:58:34;;;;;;;6.20;2.70;;;20.50;70.90;;;;;;5054326;28;20504;-72
2023/09/24 01:01:00;;;;;;;11.10;2.70;;;20.60;70.80;;;;;;5054426;28;20032;-73
2023/09/24 01:03:27;;;;;;;14.52;2.53;;;20.60;70.80;;;;;;5054629;28;20033;-72
2023/09/24 01:05:53;;;;;;;6.20;1.75;;;20.50;70.60;;;;;;5054298;28;20037;-73
2023/09/24 01:08:21;;;;;;;5.93;2.20;;;20.50;70.70;;;;;;5077737;28;20123;-73
2023/09/24 01:10:47;;;;;;;9.10;2.53;;;20.40;70.70;;;;;;5094902;28;20402;-73
2023/09/24 01:13:20;;;;;;;9.98;2.30;;;20.30;70.50;;;;;;5094551;28;20080;-72
2023/09/24 01:15:50;;;;;;;5.30;2.00;;;20.30;70.80;;;;;;5094797;28;20107;-72
2023/09/24 01:18:17;;;;;;;6.95;2.45;;;20.30;70.50;;;;;;5094313;28;20052;-72
2023/09/24 01:20:43;;;;;;;7.18;1.92;;;20.30;70.70;;;;;;5094632;28;20028;-72
2023/09/24 01:23:11;;;;;;;7.85;2.25;;;20.30;70.30;;;;;;5094400;28;20507;-72
2023/09/24 01:25:37;;;;;;;5.22;2.17;;;20.20;70.40;;;;;;5094508;28;20028;-73
2023/09/24 01:28:05;;;;;;;6.32;2.53;;;20.20;70.30;;;;;;5094063;28;20115;-72
2023/09/24 01:30:31;;;;;;;9.70;2.42;;;20.20;70.30;;;;;;5094596;28;20016;-72
2023/09/24 01:32:58;;;;;;;6.90;2.05;;;20.20;70.20;;;;;;5094514;28;20131;-72
2023/09/24 01:35:28;;;;;;;10.20;2.78;;;20.20;70.20;;;;;;5094294;28;20488;-71
2023/09/24 01:37:59;;;;;;;8.25;2.22;;;20.20;70.00;;;;;;5093910;28;20131;-73
2023/09/24 01:40:27;;;;;;;10.52;2.13;;;20.10;69.90;;;;;;5094241;28;20115;-72
2023/09/24 01:42:57;;;;;;;9.23;2.35;;;20.00;70.00;;;;;;5093998;28;20020;-73
2023/09/24 01:45:24;;;;;;;8.50;2.40;;;20.00;70.00;;;;;;5094162;28;20463;-73
2023/09/24 01:47:50;;;;;;;8.25;2.15;;;20.00;69.90;;;;;;5093964;28;20492;-73
2023/09/24 01:50:16;;;;;;;6.82;2.03;;;20.00;69.90;;;;;;5093790;28;20035;-72
2023/09/24 01:52:45;;;;;;;10.52;2.17;;;20.00;70.10;;;;;;5094026;28;20064;-72
2023/09/24 01:55:18;;;;;;;8.15;2.08;;;20.00;69.90;;;;;;5093977;28;20070;-72
2023/09/24 01:57:44;;;;;;;8.48;2.00;;;19.90;70.00;;;;;;5093724;28;20044;-73
2023/09/24 02:00:32;;;;;;;9.25;2.15;;;20.00;70.00;;;;;;5093700;28;20031;-73
2023/09/24 02:03:05;;;;;;;8.13;1.90;;;20.00;70.90;;;;;;5093064;28;20031;-72
2023/09/24 02:05:32;;;;;;;8.20;2.05;;;20.00;70.00;;;;;;5091205;28;20024;-71
2023/09/24 02:07:58;;;;;;;7.40;1.88;;;20.00;70.20;;;;;;5093255;28;20057;-72
2023/09/24 02:10:25;;;;;;;7.70;2.10;;;20.10;70.20;;;;;;5093419;28;20032;-72
2023/09/24 02:12:54;;;;;;;8.77;2.35;;;20.10;70.50;;;;;;5093617;28;20189;-72
2023/09/24 02:15:23;;;;;;;8.13;2.33;;;20.10;70.50;;;;;;5093780;28;20024;-73
2023/09/24 02:17:49;;;;;;;6.35;2.00;;;20.00;71.10;;;;;;5093734;28;20044;-73
2023/09/24 02:20:21;;;;;;;6.32;1.95;;;20.10;70.60;;;;;;5093180;28;20483;-73
2023/09/24 02:22:50;;;;;;;9.20;2.73;;;20.00;70.40;;;;;;5093129;28;20064;-73
2023/09/24 02:25:18;;;;;;;7.28;2.08;;;20.00;70.50;;;;;;5091475;28;20120;-73
2023/09/24 02:27:44;;;;;;;7.63;1.95;;;20.00;70.60;;;;;;5093343;28;20045;-72
2023/09/24 02:30:11;;;;;;;10.23;2.25;;;19.90;70.70;;;;;;5091577;28;20514;-72
2023/09/24 02:32:40;;;;;;;8.70;2.20;;;19.90;70.80;;;;;;5092910;28;20057;-72
2023/09/24 02:35:15;;;;;;;7.32;2.20;;;19.90;70.80;;;;;;5092615;28;20032;-70
2023/09/24 02:37:45;;;;;;;10.90;2.30;;;19.90;71.00;;;;;;5092937;28;20051;-72
2023/09/24 02:40:17;;;;;;;10.35;2.25;;;20.00;70.90;;;;;;5092879;28;20051;-73
2023/09/24 02:42:48;;;;;;;10.35;2.58;;;19.90;70.70;;;;;;5092580;28;20487;-72
2023/09/24 02:45:17;;;;;;;10.88;2.10;;;19.90;70.70;;;;;;5092511;28;20115;-73
2023/09/24 02:47:50;;;;;;;9.85;2.20;;;20.00;70.90;;;;;;5092593;28;20040;-72
2023/09/24 02:50:24;;;;;;;6.65;2.00;;;20.00;70.70;;;;;;5092545;28;20024;-72
2023/09/24 02:52:53;;;;;;;10.82;2.00;;;19.90;70.90;;;;;;5092531;28;20460;-71
2023/09/24 02:55:19;;;;;;;7.57;2.15;;;19.90;70.80;;;;;;5092527;28;20493;-72
2023/09/24 02:57:46;;;;;;;9.45;2.30;;;19.90;71.00;;;;;;5092482;28;20051;-71
2023/09/24 03:00:17;;;;;;;8.52;2.25;;;19.90;70.90;;;;;;5092415;28;20059;-73
2023/09/24 03:02:47;;;;;;;9.55;2.45;;;19.90;71.00;;;;;;5090634;28;20506;-73
2023/09/24 03:05:20;;;;;;;9.80;2.50;;;19.90;71.10;;;;;;5092335;28;20028;-72
2023/09/24 03:07:49;;;;;;;5.53;2.10;;;19.90;71.10;;;;;;5092321;28;20120;-72
2023/09/24 03:10:16;;;;;;;7.55;2.35;;;19.80;71.00;;;;;;5092252;28;20039;-72
2023/09/24 03:12:42;;;;;;;6.07;2.03;;;19.80;71.20;;;;;;5092404;28;20366;-71
2023/09/24 03:15:12;;;;;;;8.85;2.50;;;19.70;71.10;;;;;;5091940;28;20036;-73
2023/09/24 03:17:39;;;;;;;10.38;1.90;;;19.70;71.30;;;;;;5092151;28;20044;-72
2023/09/24 03:20:16;;;;;;;7.82;1.85;;;19.70;71.40;;;;;;5091985;28;20487;-72
2023/09/24 03:22:49;;;;;;;10.05;1.88;;;19.70;71.70;;;;;;5092317;28;20172;-72
2023/09/24 03:25:19;;;;;;;9.77;1.97;;;19.60;71.80;;;;;;5091949;28;20115;-72
2023/09/24 03:27:46;;;;;;;10.18;2.38;;;19.50;72.10;;;;;;5092258;28;20498;-72
2023/09/24 03:30:17;;;;;;;9.85;2.42;;;19.50;71.60;;;;;;5091733;28;20502;-72
2023/09/24 03:32:43;;;;;;;9.63;2.20;;;19.50;71.70;;;;;;5091936;28;20073;-72
2023/09/24 03:35:10;;;;;;;8.45;2.20;;;19.50;71.70;;;;;;5090833;28;20547;-72
2023/09/24 03:37:40;;;;;;;14.30;2.65;;;19.50;72.00;;;;;;5091896;28;20097;-73
2023/09/24 03:40:11;;;;;;;6.78;2.10;;;19.40;71.90;;;;;;5091843;28;20081;-72
2023/09/24 03:42:40;;;;;;;10.18;2.53;;;19.40;73.20;;;;;;5091618;28;20038;-72
2023/09/24 03:45:09;;;;;;;10.15;2.10;;;19.30;72.00;;;;;;5092071;28;20032;-72
2023/09/24 03:47:38;;;;;;;8.73;2.10;;;19.40;72.60;;;;;;5091817;28;20088;-72
2023/09/24 03:50:13;;;;;;;10.00;2.17;;;19.40;72.20;;;;;;5091780;28;20054;-73
2023/09/24 03:52:43;;;;;;;13.02;2.45;;;19.40;72.70;;;;;;5091949;28;20092;-72
2023/09/24 03:55:09;;;;;;;13.57;2.92;;;19.40;72.00;;;;;;5090373;28;20123;-74
2023/09/24 03:57:36;;;;;;;8.00;2.05;;;19.30;72.00;;;;;;5091507;28;20040;-73
2023/09/24 04:00:06;;;;;;;10.15;2.40;;;19.40;71.90;;;;;;5092162;28;20052;-73
2023/09/24 04:02:32;;;;;;;8.57;2.33;;;19.30;72.10;;;;;;5090421;28;20389;-73
2023/09/24 04:04:58;;;;;;;9.07;2.42;;;19.30;71.90;;;;;;5091680;28;20024;-72
2023/09/24 04:07:24;;;;;;;11.63;2.40;;;19.40;72.00;;;;;;5091459;28;20047;-73
2023/09/24 04:09:49;;;;;;;8.00;2.03;;;19.40;72.10;;;;;;5092169;28;20086;-72
2023/09/24 04:12:15;;;;;;;12.50;2.25;;;19.30;72.00;;;;;;5091779;28;20085;-73
2023/09/24 04:14:41;;;;;;;6.50;1.90;;;19.30;72.10;;;;;;5093546;28;20179;-72
2023/09/24 04:17:07;;;;;;;12.00;2.40;;;19.30;72.30;;;;;;5095514;28;20044;-71
2023/09/24 04:19:33;;;;;;;9.20;2.30;;;19.20;72.20;;;;;;5095573;28;20036;-73
2023/09/24 04:21:59;;;;;;;11.02;2.30;;;19.20;72.50;;;;;;5095383;28;20419;-72
2023/09/24 04:24:25;;;;;;;8.70;2.00;;;19.20;72.30;;;;;;5095468;28;20074;-72
2023/09/24 04:26:52;;;;;;;9.23;2.30;;;19.30;72.30;;;;;;5095867;28;20031;-73
2023/09/24 04:29:19;;;;;;;9.40;2.08;;;19.30;72.00;;;;;;5095498;28;20032;-72
2023/09/24 04:31:45;;;;;;;11.95;2.33;;;19.30;72.10;;;;;;5095368;28;20078;-72
2023/09/24 04:34:12;;;;;;;8.50;2.17;;;19.30;71.80;;;;;;5095352;28;20037;-72
2023/09/24 04:36:41;;;;;;;8.45;1.98;;;19.20;72.00;;;;;;5095339;28;20032;-72
2023/09/24 04:39:10;;;;;;;9.07;2.17;;;19.20;72.20;;;;;;5095172;28;20036;-72
2023/09/24 04:41:40;;;;;;;8.25;2.10;;;19.30;72.70;;;;;;5094988;28;20036;-72
2023/09/24 04:44:07;;;;;;;10.73;2.40;;;19.20;72.20;;;;;;5095176;28;20448;-72
2023/09/24 04:46:33;;;;;;;10.20;2.63;;;19.10;72.50;;;;;;5095035;28;20028;-72
2023/09/24 04:48:59;;;;;;;10.75;2.00;;;19.00;72.60;;;;;;5095039;28;20487;-73
2023/09/24 04:51:25;;;;;;;8.82;2.20;;;19.00;72.70;;;;;;5094978;28;20032;-72
2023/09/24 04:53:52;;;;;;;9.30;2.30;;;19.00;72.90;;;;;;5094922;28;20047;-72
2023/09/24 04:56:18;;;;;;;10.80;2.20;;;19.00;72.90;;;;;;5094809;28;20034;-72
2023/09/24 04:58:44;;;;;;;6.22;2.08;;;18.90;73.20;;;;;;5095120;28;20040;-73
2023/09/24 05:01:10;;;;;;;8.20;2.33;;;18.90;73.10;;;;;;5094736;28;20035;-71
2023/09/24 05:03:37;;;;;;;6.43;1.98;;;18.90;73.20;;;;;;5094878;28;20040;-73
2023/09/24 05:06:05;;;;;;;7.93;2.53;;;18.80;73.20;;;;;;5094804;28;20040;-67
2023/09/24 05:08:34;;;;;;;10.30;2.42;;;18.80;73.30;;;;;;5094378;28;20147;-72
2023/09/24 05:11:02;;;;;;;10.07;2.42;;;18.80;73.40;;;;;;5094536;28;20107;-73
2023/09/24 05:13:29;;;;;;;9.60;2.78;;;18.80;73.40;;;;;;5094542;28;20048;-73
2023/09/24 05:15:59;;;;;;;10.32;2.30;;;18.80;73.20;;;;;;5094728;28;20029;-72
2023/09/24 05:18:29;;;;;;;8.68;2.35;;;18.70;73.30;;;;;;5094375;28;20136;-73
2023/09/24 05:20:55;;;;;;;10.00;2.00;;;18.80;73.90;;;;;;5094881;28;20055;-72
2023/09/24 05:23:22;;;;;;;8.10;2.30;;;18.80;73.40;;;;;;5094327;28;20123;-72
2023/09/24 05:25:49;;;;;;;7.82;1.98;;;18.80;73.40;;;;;;5093718;28;20503;-72
2023/09/24 05:28:15;;;;;;;13.70;2.20;;;18.80;73.20;;;;;;5092781;28;20032;-72
2023/09/24 05:30:41;;;;;;;7.95;1.98;;;18.70;73.50;;;;;;5094437;28;20041;-73
2023/09/24 05:33:07;;;;;;;14.68;2.15;;;18.70;73.40;;;;;;5094562;28;20161;-73
2023/09/24 05:35:33;;;;;;;7.57;1.98;;;18.70;73.60;;;;;;5094345;28;20119;-73
2023/09/24 05:37:58;;;;;;;8.55;2.40;;;18.70;73.20;;;;;;5094133;28;20043;-73
2023/09/24 05:40:24;;;;;;;10.25;2.45;;;18.80;73.30;;;;;;5092618;28;20040;-72
2023/09/24 05:42:50;;;;;;;13.25;2.50;;;18.80;73.20;;;;;;5094371;28;20041;-72
2023/09/24 05:45:16;;;;;;;6.60;1.92;;;18.90;72.80;;;;;;5092930;28;20514;-72
2023/09/24 05:47:42;;;;;;;7.32;1.77;;;18.90;72.50;;;;;;5094125;28;20058;-73
2023/09/24 05:50:08;;;;;;;8.73;2.42;;;18.90;72.50;;;;;;5093947;28;20046;-72
2023/09/24 05:52:34;;;;;;;11.55;2.28;;;18.90;72.40;;;;;;5094021;28;20032;-73
2023/09/24 05:55:00;;;;;;;7.88;1.95;;;18.90;72.60;;;;;;5095790;28;20028;-72
2023/09/24 05:57:28;;;;;;;7.32;2.33;;;19.00;72.40;;;;;;5093604;28;20055;-73
2023/09/24 05:59:55;;;;;;;11.13;2.65;;;19.00;72.60;;;;;;5093713;28;20032;-74
2023/09/24 06:02:26;;;;;;;7.38;2.25;;;19.10;72.20;;;;;;5092283;28;20043;-73
2023/09/24 06:04:55;;;;;;;7.68;2.33;;;19.40;71.90;;;;;;5093649;28;20131;-74
2023/09/24 08:29:28;;;;;;;7.53;1.88;;;21.20;63.80;;;;;;5059138;28;20157;-77
2023/09/24 08:31:54;;;;;;;4.00;1.30;;;21.20;63.90;;;;;;5045654;28;20530;-75
2023/09/24 08:34:20;;;;;;;4.07;1.45;;;21.20;63.70;;;;;;5067343;28;20032;-76
2023/09/24 08:36:45;;;;;;;3.92;1.40;;;21.10;63.80;;;;;;5091173;28;20544;-73
2023/09/24 08:39:14;;;;;;;4.30;1.50;;;21.10;63.70;;;;;;5066863;28;20049;-74
2023/09/24 08:41:44;;;;;;;4.28;1.35;;;21.10;64.00;;;;;;5051299;28;20441;-73
2023/09/24 08:44:14;;;;;;;5.90;1.52;;;21.20;64.10;;;;;;5051106;28;20029;-74
2023/09/24 08:46:42;;;;;;;3.45;1.35;;;21.30;64.30;;;;;;5051068;28;20111;-73
2023/09/24 08:49:08;;;;;;;5.03;1.63;;;21.30;64.20;;;;;;5049340;28;20512;-75
2023/09/24 08:51:35;;;;;;;4.38;1.48;;;21.40;63.90;;;;;;5087692;28;20036;-74
2023/09/24 08:54:01;;;;;;;22.00;2.20;;;21.50;64.00;;;;;;5091840;28;20036;-75
2023/09/24 08:56:27;;;;;;;4.30;1.38;;;21.50;64.20;;;;;;5091305;28;20032;-76
2023/09/24 08:58:54;;;;;;;4.20;1.60;;;21.50;63.50;;;;;;5089277;28;20093;-75
2023/09/24 09:01:21;;;;;;;6.55;1.38;;;21.50;63.50;;;;;;5051795;28;20503;-74
2023/09/24 09:03:49;;;;;;;5.65;1.67;;;21.60;63.40;;;;;;5055167;28;20040;-75
2023/09/24 09:06:36;;;;;;;3.67;1.40;;;21.60;63.10;;;;;;5054834;28;20112;-78
2023/09/24 09:09:02;;;;;;;4.00;1.20;;;21.70;63.30;;;;;;5058395;28;20104;-73
2023/09/24 09:11:42;;;;;;;3.05;1.13;;;21.70;62.40;;;;;;5054714;28;20037;-75
2023/09/24 09:14:09;;;;;;;4.97;1.42;;;21.70;62.40;;;;;;5054458;28;20040;-80
2023/09/24 09:17:02;;;;;;;4.05;1.20;;;21.70;62.60;;;;;;5054142;28;20055;-76
2023/09/24 09:19:29;;;;;;;3.08;1.33;;;21.80;62.40;;;;;;5050525;28;20041;-77
2023/09/24 09:21:55;;;;;;;3.47;1.48;;;21.90;62.30;;;;;;5050292;28;20111;-74
2023/09/24 09:24:23;;;;;;;11.63;7.70;;;21.90;62.20;;;;;;5052729;28;20394;-75
2023/09/24 09:26:58;;;;;;;4.30;1.90;;;22.00;62.60;;;;;;5053842;28;20033;-70
2023/09/24 09:29:25;;;;;;;3.70;1.40;;;22.10;62.50;;;;;;5048150;28;20483;-76
2023/09/24 09:31:52;;;;;;;5.47;1.38;;;22.20;62.40;;;;;;5011983;28;20048;-76
2023/09/24 09:34:19;;;;;;;4.45;1.25;;;22.30;61.70;;;;;;5016195;28;20033;-75
2023/09/24 09:36:45;;;;;;;4.90;1.23;;;22.30;61.20;;;;;;5016071;28;20493;-75
2023/09/24 09:39:10;;;;;;;4.65;1.25;;;22.40;60.60;;;;;;5033001;28;20079;-77
2023/09/24 09:41:40;;;;;;;4.45;1.50;;;22.40;60.00;;;;;;5011737;28;20114;-76
2023/09/24 09:44:07;;;;;;;4.95;1.45;;;22.40;60.00;;;;;;5033901;28;20076;-75
2023/09/24 09:46:39;;;;;;;4.75;1.38;;;22.40;59.90;;;;;;5034000;28;20030;-79
2023/09/24 09:49:09;;;;;;;4.70;1.10;;;22.50;59.80;;;;;;5014940;28;20107;-75
2023/09/24 09:51:48;;;;;;;3.97;1.20;;;22.60;60.00;;;;;;5048184;28;20035;-74
2023/09/24 09:54:15;;;;;;;3.33;1.10;;;22.60;59.50;;;;;;5035752;28;20040;-76
2023/09/24 09:56:42;;;;;;;3.47;1.50;;;22.60;59.80;;;;;;5053540;28;20033;-78
2023/09/24 09:59:08;;;;;;;4.45;1.50;;;22.70;59.70;;;;;;5052556;28;20148;-79
2023/09/24 10:01:35;;;;;;;3.60;1.40;;;22.70;59.50;;;;;;5051450;28;20017;-81
2023/09/24 10:04:06;;;;;;;4.43;1.20;;;22.80;59.60;;;;;;5062634;28;20037;-81
2023/09/24 10:06:34;;;;;;;3.85;1.20;;;22.90;59.10;;;;;;5057200;28;20029;-79
2023/09/24 10:09:01;;;;;;;3.33;1.33;;;23.00;59.40;;;;;;5052113;28;20129;-76
2023/09/24 10:11:33;;;;;;;4.65;1.38;;;23.00;59.10;;;;;;5048869;28;20119;-78
2023/09/24 10:14:00;;;;;;;4.53;1.45;;;23.00;58.90;;;;;;5053484;28;20544;-78
2023/09/24 10:16:26;;;;;;;4.85;1.30;;;23.10;59.10;;;;;;5053411;28;20124;-80
2023/09/24 10:18:56;;;;;;;2.05;1.05;;;23.20;59.00;;;;;;5052280;28;20120;-77
2023/09/24 10:21:39;;;;;;;6.75;1.50;;;23.20;59.10;;;;;;5030000;28;20034;-77
2023/09/24 10:24:13;;;;;;;3.28;1.15;;;23.20;58.50;;;;;;5045908;28;20041;-77
2023/09/24 10:26:48;;;;;;;2.60;1.02;;;23.30;58.90;;;;;;5051760;28;20056;-77
2023/09/24 10:29:16;;;;;;;2.88;1.30;;;23.30;58.70;;;;;;5051267;28;20057;-81
2023/09/24 10:32:08;;;;;;;4.38;1.00;;;23.30;58.60;;;;;;5048178;28;20107;-81
2023/09/24 10:34:55;;;;;;;5.38;1.58;;;23.40;58.40;;;;;;5052672;28;20064;-78
2023/09/24 10:37:22;;;;;;;6.47;1.20;;;23.50;58.50;;;;;;5034757;28;20143;-77
2023/09/24 10:40:09;;;;;;;2.80;1.20;;;23.50;58.60;;;;;;5050492;28;20033;-77
2023/09/24 10:42:39;;;;;;;4.13;1.02;;;23.50;58.40;;;;;;5034025;28;20029;-75
2023/09/24 10:45:07;;;;;;;2.90;1.20;;;23.50;58.60;;;;;;5052744;28;20102;-76
2023/09/24 10:47:40;;;;;;;3.13;1.02;;;23.60;58.50;;;;;;5054237;28;20033;-76
2023/09/24 10:50:20;;;;;;;3.95;1.30;;;23.70;58.50;;;;;;5055668;28;20044;-82
2023/09/24 10:52:49;;;;;;;4.60;1.50;;;23.60;58.20;;;;;;5075471;28;20037;-77
2023/09/24 10:55:36;;;;;;;8.30;5.50;;;23.50;57.90;;;;;;5054285;28;20488;-76
2023/09/24 10:58:03;;;;;;;2.92;1.35;;;23.60;58.20;;;;;;5072826;28;20047;-74
2023/09/24 11:00:31;;;;;;;2.85;1.30;;;23.70;58.40;;;;;;5063282;28;20041;-74
2023/09/24 11:03:03;;;;;;;2.67;1.10;;;23.80;58.60;;;;;;5072980;28;20093;-75
2023/09/24 11:05:33;;;;;;;3.47;1.20;;;23.90;58.30;;;;;;5073552;28;20024;-74
2023/09/24 11:07:58;;;;;;;2.65;1.20;;;24.00;58.50;;;;;;5072481;28;20044;-77
2023/09/24 11:10:25;;;;;;;3.92;1.10;;;24.10;57.40;;;;;;5053183;28;20029;-78
2023/09/24 11:13:00;;;;;;;3.67;1.25;;;24.10;57.10;;;;;;5052618;28;20037;-85
2023/09/24 11:15:31;;;;;;;2.70;1.27;;;24.20;57.00;;;;;;5034840;28;20033;-79
2023/09/24 11:17:57;;;;;;;1.90;1.00;;;24.30;57.40;;;;;;5052233;28;20052;-76
2023/09/24 11:20:24;;;;;;;4.55;1.20;;;24.30;57.10;;;;;;5043611;28;20071;-77
2023/09/24 11:23:09;;;;;;;2.05;1.02;;;24.40;56.60;;;;;;5054095;28;20112;-82
2023/09/24 11:25:36;;;;;;;2.00;1.02;;;24.40;56.40;;;;;;5077606;28;20021;-73
2023/09/24 11:28:03;;;;;;;5.28;1.60;;;24.40;56.20;;;;;;5072744;28;20040;-75
2023/09/24 11:30:50;;;;;;;3.00;1.20;;;24.40;56.50;;;;;;5067951;28;20349;-73
2023/09/24 11:33:21;;;;;;;2.92;1.00;;;24.50;56.20;;;;;;5071901;28;20040;-78
2023/09/24 11:35:47;;;;;;;3.65;1.20;;;24.50;56.20;;;;;;5071779;28;20029;-78
2023/09/24 11:38:25;;;;;;;3.83;1.45;;;24.50;57.00;;;;;;5072052;28;20158;-82
2023/09/24 11:40:51;;;;;;;3.38;1.05;;;24.60;56.30;;;;;;5032212;28;20044;-74
2023/09/24 11:43:16;;;;;;;2.83;1.30;;;24.70;56.40;;;;;;5051439;28;20274;-74
2023/09/24 11:45:53;;;;;;;4.13;1.60;;;24.80;55.90;;;;;;5051855;28;20033;-75
2023/09/24 11:48:20;;;;;;;3.35;1.00;;;24.90;56.00;;;;;;5051731;28;20029;-75
2023/09/24 11:50:48;;;;;;;3.20;1.40;;;25.00;54.60;;;;;;5063554;28;20432;-74
2023/09/24 11:53:16;;;;;;;4.15;1.27;;;25.00;55.30;;;;;;5053646;28;20380;-74
2023/09/24 11:55:42;;;;;;;2.42;1.25;;;25.00;55.30;;;;;;5071152;28;20111;-74
2023/09/24 11:58:08;;;;;;;4.07;1.40;;;24.90;54.80;;;;;;5072072;28;20140;-74
2023/09/24 12:00:39;;;;;;;5.78;1.50;;;24.90;54.80;;;;;;5068108;28;20040;-73
2023/09/24 12:03:06;;;;;;;2.55;1.30;;;24.90;55.00;;;;;;5071811;28;20063;-75
2023/09/24 12:05:32;;;;;;;5.40;1.90;;;24.90;55.40;;;;;;5071753;28;20059;-74
2023/09/24 12:07:59;;;;;;;2.45;1.05;;;25.00;55.30;;;;;;5071567;28;20435;-74
2023/09/24 12:10:26;;;;;;;7.72;2.13;;;25.10;55.40;;;;;;5054653;28;20493;-75
2023/09/24 12:12:52;;;;;;;2.65;1.27;;;25.30;55.40;;;;;;5051888;28;20110;-74
2023/09/24 12:15:19;;;;;;;1.88;1.00;;;25.40;55.00;;;;;;5051331;28;20039;-72
2023/09/24 12:17:46;;;;;;;4.50;1.17;;;25.40;54.70;;;;;;5051779;28;20071;-74
2023/09/24 12:20:13;;;;;;;4.70;1.20;;;25.50;54.80;;;;;;5046801;28;20041;-75
2023/09/24 12:22:41;;;;;;;3.45;1.50;;;25.50;54.50;;;;;;5033586;28;20079;-74
2023/09/24 12:25:08;;;;;;;3.08;1.40;;;25.60;54.50;;;;;;5051818;28;20439;-73
2023/09/24 12:27:34;;;;;;;2.38;1.17;;;25.60;54.20;;;;;;5051599;28;20079;-73
2023/09/24 12:29:59;;;;;;;8.82;1.52;;;25.70;54.30;;;;;;5047578;28;20084;-73
2023/09/24 12:32:26;;;;;;;4.75;1.50;;;25.90;54.30;;;;;;5051492;28;20038;-72
2023/09/24 12:34:51;;;;;;;5.53;1.40;;;25.90;54.00;;;;;;5051976;28;20488;-75
2023/09/24 12:37:17;;;;;;;6.00;1.90;;;26.00;53.80;;;;;;5055099;28;20051;-75
2023/09/24 12:39:44;;;;;;;3.33;1.38;;;26.00;53.80;;;;;;5067595;28;20032;-75
2023/09/24 12:42:09;;;;;;;2.45;1.50;;;26.10;53.70;;;;;;5093529;28;20059;-75
2023/09/24 12:44:35;;;;;;;5.32;1.77;;;26.20;53.70;;;;;;5095872;28;20031;-76
2023/09/24 12:47:01;;;;;;;5.68;1.05;;;26.30;53.30;;;;;;5095492;28;20036;-78
2023/09/24 12:49:27;;;;;;;3.25;1.13;;;26.30;52.70;;;;;;5066027;28;20396;-76
2023/09/24 12:51:53;;;;;;;7.75;1.75;;;26.50;53.00;;;;;;5090322;28;20040;-75
2023/09/24 12:54:18;;;;;;;3.10;1.48;;;26.40;52.70;;;;;;5096090;28;20028;-76
2023/09/24 12:56:44;;;;;;;5.72;1.48;;;26.40;53.00;;;;;;5095487;28;20032;-76
2023/09/24 12:59:13;;;;;;;4.93;1.15;;;26.40;53.10;;;;;;5087376;28;20136;-76
2023/09/24 13:01:39;;;;;;;3.13;1.30;;;26.40;53.00;;;;;;5052541;28;20040;-72
2023/09/24 13:04:05;;;;;;;5.10;1.17;;;26.40;53.30;;;;;;5057434;28;20033;-77
2023/09/24 13:06:30;;;;;;;4.43;1.40;;;26.40;53.20;;;;;;5055487;28;20485;-71
2023/09/24 13:08:56;;;;;;;2.80;1.30;;;26.50;53.20;;;;;;5052330;28;20029;-79
2023/09/24 13:11:22;;;;;;;3.50;1.13;;;26.50;52.80;;;;;;5051469;28;20037;-76
2023/09/24 13:13:48;;;;;;;3.80;1.20;;;26.50;52.50;;;;;;5054694;28;20108;-78
2023/09/24 13:16:13;;;;;;;4.25;1.60;;;26.50;52.50;;;;;;5054699;28;20481;-79
2023/09/24 13:18:40;;;;;;;2.83;1.10;;;26.50;52.50;;;;;;5054818;28;20045;-80
2023/09/24 13:21:06;;;;;;;2.65;1.25;;;26.70;52.20;;;;;;5085715;28;20032;-79
2023/09/24 13:23:32;;;;;;;5.22;1.13;;;26.60;52.00;;;;;;5095049;28;20032;-82
2023/09/24 13:25:58;;;;;;;2.75;1.08;;;26.50;52.00;;;;;;5065531;28;20033;-82
2023/09/24 13:28:23;;;;;;;2.35;0.90;;;26.40;52.30;;;;;;5075067;28;20032;-83
2023/09/24 13:30:49;;;;;;;2.65;1.23;;;26.40;52.10;;;;;;5057684;28;20087;-82
2023/09/24 13:33:15;;;;;;;1.63;1.10;;;26.50;52.20;;;;;;5055377;28;20060;-82
2023/09/24 13:35:43;;;;;;;3.53;1.00;;;26.50;52.30;;;;;;5038297;28;20033;-78
2023/09/24 13:38:10;;;;;;;2.08;0.68;;;26.50;52.60;;;;;;5054814;28;20512;-83
2023/09/24 13:40:39;;;;;;;3.92;1.00;;;26.40;52.50;;;;;;5041138;28;20032;-79
2023/09/24 13:43:07;;;;;;;2.00;0.90;;;26.40;52.90;;;;;;5077225;28;20059;-76
2023/09/24 13:45:49;;;;;;;2.08;0.88;;;26.40;52.80;;;;;;5083524;28;20039;-82
2023/09/24 13:48:15;;;;;;;3.63;0.82;;;26.40;53.20;;;;;;5082244;28;20048;-84
2023/09/24 13:50:51;;;;;;;2.90;0.82;;;26.40;52.80;;;;;;5080657;28;20476;-84
2023/09/24 13:53:17;;;;;;;3.38;1.17;;;26.40;52.70;;;;;;5058474;28;20463;-77
2023/09/24 13:55:44;;;;;;;1.40;0.80;;;26.30;52.50;;;;;;5073947;28;20033;-78
2023/09/24 13:58:11;;;;;;;3.03;0.82;;;26.30;52.60;;;;;;5056292;28;20041;-77
2023/09/24 14:00:36;;;;;;;2.15;0.90;;;26.30;52.60;;;;;;5043755;28;20037;-81
2023/09/24 14:03:02;;;;;;;3.38;0.90;;;26.30;52.20;;;;;;5054512;28;20036;-80
2023/09/24 14:05:31;;;;;;;3.72;0.80;;;26.40;52.40;;;;;;5053694;28;20036;-80
2023/09/24 14:12:17;;;;;;;3.17;0.77;;;26.40;52.20;;;;;;5054324;28;20061;-79
2023/09/24 14:13:30;;;;;;;3.15;0.60;;;26.50;52.00;;;;;;5053909;28;20059;-79
2023/09/24 14:15:56;;;;;;;2.67;0.38;;;26.40;51.80;;;;;;5035800;28;20500;-78
2023/09/24 14:18:22;;;;;;;2.80;0.50;;;26.30;51.80;;;;;;5053477;28;20052;-79
2023/09/24 14:20:48;;;;;;;1.90;0.57;;;26.30;51.90;;;;;;5050466;28;20104;-79
2023/09/24 14:23:14;;;;;;;2.70;0.63;;;26.20;52.00;;;;;;5053400;28;20438;-78
2023/09/24 14:25:42;;;;;;;1.55;0.47;;;26.20;52.10;;;;;;5035131;28;20054;-78
2023/09/24 14:28:08;;;;;;;0.95;0.40;;;26.20;52.20;;;;;;5053586;28;20124;-79
2023/09/24 14:30:40;;;;;;;2.05;0.63;;;26.30;51.90;;;;;;5053741;28;20124;-78
2023/09/24 14:33:06;;;;;;;3.00;0.88;;;26.30;52.10;;;;;;5053647;28;20041;-79
2023/09/24 14:35:33;;;;;;;1.70;0.50;;;26.30;51.90;;;;;;5052782;28;20029;-82
2023/09/24 14:37:58;;;;;;;1.35;0.43;;;26.10;51.90;;;;;;5051705;28;20402;-78
2023/09/24 14:40:24;;;;;;;2.63;0.45;;;26.00;52.00;;;;;;5065254;28;20036;-78
2023/09/24 14:42:50;;;;;;;3.35;0.50;;;26.00;52.10;;;;;;5053259;28;20104;-80
2023/09/24 14:45:15;;;;;;;2.75;0.63;;;26.00;52.20;;;;;;5054250;28;20033;-80
2023/09/24 14:47:42;;;;;;;2.80;0.73;;;26.00;52.40;;;;;;5057099;28;20092;-78
2023/09/24 14:50:09;;;;;;;2.38;0.40;;;25.90;52.20;;;;;;5071210;28;20028;-78
2023/09/24 14:52:35;;;;;;;1.27;0.40;;;25.80;52.20;;;;;;5092856;28;20036;-79
2023/09/24 14:55:01;;;;;;;1.20;0.50;;;25.80;52.40;;;;;;5093341;28;20039;-82
2023/09/24 14:57:27;;;;;;;3.60;1.00;;;25.80;52.30;;;;;;5093079;28;20078;-86
2023/09/24 14:59:53;;;;;;;1.00;0.40;;;25.90;52.20;;;;;;5076031;28;20025;-84
2023/09/24 15:02:19;;;;;;;2.03;0.77;;;25.90;51.90;;;;;;5076124;28;20135;-84
2023/09/24 15:04:44;;;;;;;1.95;0.65;;;25.80;51.90;;;;;;5093874;28;20054;-78
2023/09/24 15:07:10;;;;;;;7.88;1.05;;;25.90;51.90;;;;;;5094120;28;20459;-77
2023/09/24 15:09:36;;;;;;;2.58;0.60;;;25.90;51.90;;;;;;5094414;28;20032;-84
2023/09/24 15:12:05;;;;;;;1.70;0.70;;;25.80;51.50;;;;;;5083558;28;20032;-81
2023/09/24 15:14:31;;;;;;;3.15;0.75;;;25.70;51.50;;;;;;5094715;28;20333;-81
2023/09/24 15:16:56;;;;;;;3.10;0.60;;;25.60;51.50;;;;;;5074310;28;20043;-79